sensor_id;sensor_type;location;lat;lon;timestamp;temperature;humidity
4433;DHT22;2229;48.708;9.706;2023-08-07T00:00:06;12.30;99.90
4433;DHT22;2229;48.708;9.706;2023-08-07T00:02:35;12.40;99.90
4433;DHT22;2229;48.708;9.706;2023-08-07T00:05:03;12.40;99.90
4433;DHT22;2229;48.708;9.706;2023-08-07T00:07:30;12.40;99.90
4433;DHT22;2229;48.708;9.706;2023-08-07T00:09:59;12.50;99.90
4433;DHT22;2229;48.708;9.706;2023-08-07T00:12:29;12.50;99.90
4433;DHT22;2229;48.708;9.706;2023-08-07T00:14:56;12.50;99.90
4433;DHT22;2229;48.708;9.706;2023-08-07T00:17:23;12.50;99.90
4433;DHT22;2229;48.708;9.706;2023-08-07T00:19:51;12.50;99.90
4433;DHT22;2229;48.708;9.706;2023-08-07T00:22:18;12.50;99.90
4433;DHT22;2229;48.708;9.706;2023-08-07T00:24:45;12.60;99.90
4433;DHT22;2229;48.708;9.706;2023-08-07T00:27:14;12.60;99.90
4433;DHT22;2229;48.708;9.706;2023-08-07T00:29:41;12.50;99.90
4433;DHT22;2229;48.708;9.706;2023-08-07T00:32:09;12.50;99.90
4433;DHT22;2229;48.708;9.706;2023-08-07T00:34:36;12.50;99.90
4433;DHT22;2229;48.708;9.706;2023-08-07T00:37:04;12.50;99.90
4433;DHT22;2229;48.708;9.706;2023-08-07T00:39:31;12.50;99.90
4433;DHT22;2229;48.708;9.706;2023-08-07T00:41:59;12.50;99.90
4433;DHT22;2229;48.708;9.706;2023-08-07T00:44:27;12.50;99.90
4433;DHT22;2229;48.708;9.706;2023-08-07T00:46:54;12.50;99.90
4433;DHT22;2229;48.708;9.706;2023-08-07T00:49:22;12.50;99.90
4433;DHT22;2229;48.708;9.706;2023-08-07T00:51:49;12.60;99.90
4433;DHT22;2229;48.708;9.706;2023-08-07T00:54:18;12.60;99.90
4433;DHT22;2229;48.708;9.706;2023-08-07T00:56:46;12.60;99.90
4433;DHT22;2229;48.708;9.706;2023-08-07T00:59:15;12.60;99.90
4433;DHT22;2229;48.708;9.706;2023-08-07T01:01:45;12.60;99.90
4433;DHT22;2229;48.708;9.706;2023-08-07T01:04:12;12.60;99.90
4433;DHT22;2229;48.708;9.706;2023-08-07T01:06:40;12.50;99.90
4433;DHT22;2229;48.708;9.706;2023-08-07T01:09:07;12.50;99.90
4433;DHT22;2229;48.708;9.706;2023-08-07T01:11:39;12.50;99.90
4433;DHT22;2229;48.708;9.706;2023-08-07T01:14:19;12.50;99.90
4433;DHT22;2229;48.708;9.706;2023-08-07T01:16:57;12.40;99.90
4433;DHT22;2229;48.708;9.706;2023-08-07T01:19:28;12.40;99.90
4433;DHT22;2229;48.708;9.706;2023-08-07T01:22:07;12.40;99.90
4433;DHT22;2229;48.708;9.706;2023-08-07T01:24:35;12.40;99.90
4433;DHT22;2229;48.708;9.706;2023-08-07T01:27:19;12.40;99.90
4433;DHT22;2229;48.708;9.706;2023-08-07T01:29:52;12.40;99.90
4433;DHT22;2229;48.708;9.706;2023-08-07T01:32:27;12.40;99.90
4433;DHT22;2229;48.708;9.706;2023-08-07T01:34:55;12.30;99.90
4433;DHT22;2229;48.708;9.706;2023-08-07T01:37:29;12.30;99.90
4433;DHT22;2229;48.708;9.706;2023-08-07T01:39:59;12.30;99.90
4433;DHT22;2229;48.708;9.706;2023-08-07T01:42:27;12.30;99.90
4433;DHT22;2229;48.708;9.706;2023-08-07T01:44:55;12.20;99.90
4433;DHT22;2229;48.708;9.706;2023-08-07T01:47:23;12.20;99.90
4433;DHT22;2229;48.708;9.706;2023-08-07T01:49:50;12.20;99.90
4433;DHT22;2229;48.708;9.706;2023-08-07T01:52:18;12.20;99.90
4433;DHT22;2229;48.708;9.706;2023-08-07T01:54:48;12.20;99.90
4433;DHT22;2229;48.708;9.706;2023-08-07T01:57:15;12.10;99.90
4433;DHT22;2229;48.708;9.706;2023-08-07T01:59:43;12.10;99.90
4433;DHT22;2229;48.708;9.706;2023-08-07T02:02:10;12.10;99.90
4433;DHT22;2229;48.708;9.706;2023-08-07T02:04:38;12.10;99.90
4433;DHT22;2229;48.708;9.706;2023-08-07T02:07:05;12.10;99.90
4433;DHT22;2229;48.708;9.706;2023-08-07T02:09:32;12.10;99.90
4433;DHT22;2229;48.708;9.706;2023-08-07T02:12:01;12.10;99.90
4433;DHT22;2229;48.708;9.706;2023-08-07T02:14:29;12.10;99.90
4433;DHT22;2229;48.708;9.706;2023-08-07T02:16:56;12.10;99.90
4433;DHT22;2229;48.708;9.706;2023-08-07T02:19:25;12.10;99.90
4433;DHT22;2229;48.708;9.706;2023-08-07T02:21:52;12.10;99.90
4433;DHT22;2229;48.708;9.706;2023-08-07T02:24:20;12.10;99.90
4433;DHT22;2229;48.708;9.706;2023-08-07T02:26:47;12.10;99.90
4433;DHT22;2229;48.708;9.706;2023-08-07T02:29:16;12.10;99.90
4433;DHT22;2229;48.708;9.706;2023-08-07T02:31:43;12.10;99.90
4433;DHT22;2229;48.708;9.706;2023-08-07T02:34:10;12.00;99.90
4433;DHT22;2229;48.708;9.706;2023-08-07T02:36:37;12.10;99.90
4433;DHT22;2229;48.708;9.706;2023-08-07T02:39:05;12.00;99.90
4433;DHT22;2229;48.708;9.706;2023-08-07T02:41:32;12.10;99.90
4433;DHT22;2229;48.708;9.706;2023-08-07T02:44:00;12.10;99.90
4433;DHT22;2229;48.708;9.706;2023-08-07T02:46:29;12.10;99.90
4433;DHT22;2229;48.708;9.706;2023-08-07T02:48:56;12.10;99.90
4433;DHT22;2229;48.708;9.706;2023-08-07T02:51:23;12.10;99.90
4433;DHT22;2229;48.708;9.706;2023-08-07T02:53:50;12.10;99.90
4433;DHT22;2229;48.708;9.706;2023-08-07T02:56:17;12.20;99.90
4433;DHT22;2229;48.708;9.706;2023-08-07T02:58:45;12.20;99.90
4433;DHT22;2229;48.708;9.706;2023-08-07T03:01:12;12.10;99.90
4433;DHT22;2229;48.708;9.706;2023-08-07T03:03:40;12.20;99.90
4433;DHT22;2229;48.708;9.706;2023-08-07T03:06:08;12.20;99.90
4433;DHT22;2229;48.708;9.706;2023-08-07T03:08:35;12.20;99.90
4433;DHT22;2229;48.708;9.706;2023-08-07T03:11:02;12.10;99.90
4433;DHT22;2229;48.708;9.706;2023-08-07T03:13:29;12.20;99.90
4433;DHT22;2229;48.708;9.706;2023-08-07T03:15:59;12.10;99.90
4433;DHT22;2229;48.708;9.706;2023-08-07T03:18:27;12.20;99.90
4433;DHT22;2229;48.708;9.706;2023-08-07T03:20:56;12.10;99.90
4433;DHT22;2229;48.708;9.706;2023-08-07T03:23:24;12.10;99.90
4433;DHT22;2229;48.708;9.706;2023-08-07T03:26:02;12.20;99.90
4433;DHT22;2229;48.708;9.706;2023-08-07T03:28:29;12.10;99.90
4433;DHT22;2229;48.708;9.706;2023-08-07T03:30:57;12.10;99.90
4433;DHT22;2229;48.708;9.706;2023-08-07T03:33:26;12.10;99.90
4433;DHT22;2229;48.708;9.706;2023-08-07T03:35:56;12.10;99.90
4433;DHT22;2229;48.708;9.706;2023-08-07T03:38:24;12.10;99.90
4433;DHT22;2229;48.708;9.706;2023-08-07T03:40:53;12.00;99.90
4433;DHT22;2229;48.708;9.706;2023-08-07T03:43:20;12.00;99.90
4433;DHT22;2229;48.708;9.706;2023-08-07T03:45:53;12.00;99.90
4433;DHT22;2229;48.708;9.706;2023-08-07T03:48:21;12.00;99.90
4433;DHT22;2229;48.708;9.706;2023-08-07T03:50:49;12.00;99.90
4433;DHT22;2229;48.708;9.706;2023-08-07T03:53:18;12.00;99.90
4433;DHT22;2229;48.708;9.706;2023-08-07T03:55:51;12.00;99.90
4433;DHT22;2229;48.708;9.706;2023-08-07T03:58:21;12.00;99.90
4433;DHT22;2229;48.708;9.706;2023-08-07T04:00:50;12.00;99.90
4433;DHT22;2229;48.708;9.706;2023-08-07T04:03:19;12.10;99.90
4433;DHT22;2229;48.708;9.706;2023-08-07T04:05:46;12.10;99.90
4433;DHT22;2229;48.708;9.706;2023-08-07T04:08:14;12.10;99.90
4433;DHT22;2229;48.708;9.706;2023-08-07T04:10:43;12.00;99.90
4433;DHT22;2229;48.708;9.706;2023-08-07T04:13:10;12.00;99.90
4433;DHT22;2229;48.708;9.706;2023-08-07T04:15:37;12.00;99.90
4433;DHT22;2229;48.708;9.706;2023-08-07T04:18:04;12.00;99.90
4433;DHT22;2229;48.708;9.706;2023-08-07T04:20:31;12.00;99.90
4433;DHT22;2229;48.708;9.706;2023-08-07T04:22:59;12.10;99.90
4433;DHT22;2229;48.708;9.706;2023-08-07T04:25:26;12.10;99.90
4433;DHT22;2229;48.708;9.706;2023-08-07T04:27:54;12.10;99.90
4433;DHT22;2229;48.708;9.706;2023-08-07T04:30:22;12.10;99.90
4433;DHT22;2229;48.708;9.706;2023-08-07T04:32:49;12.10;99.90
4433;DHT22;2229;48.708;9.706;2023-08-07T04:35:17;12.10;99.90
4433;DHT22;2229;48.708;9.706;2023-08-07T04:37:47;12.10;99.90
4433;DHT22;2229;48.708;9.706;2023-08-07T04:40:14;12.10;99.90
4433;DHT22;2229;48.708;9.706;2023-08-07T04:42:41;12.10;99.90
4433;DHT22;2229;48.708;9.706;2023-08-07T04:45:10;12.10;99.90
4433;DHT22;2229;48.708;9.706;2023-08-07T04:47:38;12.10;99.90
4433;DHT22;2229;48.708;9.706;2023-08-07T04:50:06;12.10;99.90
4433;DHT22;2229;48.708;9.706;2023-08-07T04:52:34;12.10;99.90
4433;DHT22;2229;48.708;9.706;2023-08-07T04:55:01;12.10;99.90
4433;DHT22;2229;48.708;9.706;2023-08-07T04:57:29;12.10;99.90
4433;DHT22;2229;48.708;9.706;2023-08-07T04:59:56;12.20;99.90
4433;DHT22;2229;48.708;9.706;2023-08-07T05:02:25;12.20;99.90
4433;DHT22;2229;48.708;9.706;2023-08-07T05:04:52;12.30;99.90
4433;DHT22;2229;48.708;9.706;2023-08-07T05:07:20;12.30;99.90
4433;DHT22;2229;48.708;9.706;2023-08-07T05:09:47;12.30;99.90
4433;DHT22;2229;48.708;9.706;2023-08-07T05:12:16;12.30;99.90
4433;DHT22;2229;48.708;9.706;2023-08-07T05:14:43;12.30;99.90
4433;DHT22;2229;48.708;9.706;2023-08-07T05:17:10;12.30;99.90
4433;DHT22;2229;48.708;9.706;2023-08-07T05:19:40;12.30;99.90
4433;DHT22;2229;48.708;9.706;2023-08-07T05:22:07;12.30;99.90
4433;DHT22;2229;48.708;9.706;2023-08-07T05:24:34;12.40;99.90
4433;DHT22;2229;48.708;9.706;2023-08-07T05:27:05;12.40;99.90
4433;DHT22;2229;48.708;9.706;2023-08-07T05:29:33;12.40;99.90
4433;DHT22;2229;48.708;9.706;2023-08-07T05:32:05;12.40;99.90
4433;DHT22;2229;48.708;9.706;2023-08-07T05:34:32;12.40;99.90
4433;DHT22;2229;48.708;9.706;2023-08-07T05:37:00;12.40;99.90
4433;DHT22;2229;48.708;9.706;2023-08-07T05:39:28;12.40;99.90
4433;DHT22;2229;48.708;9.706;2023-08-07T05:41:55;12.40;99.90
4433;DHT22;2229;48.708;9.706;2023-08-07T05:44:23;12.50;99.90
4433;DHT22;2229;48.708;9.706;2023-08-07T05:46:51;12.50;99.90
4433;DHT22;2229;48.708;9.706;2023-08-07T05:49:19;12.50;99.90
4433;DHT22;2229;48.708;9.706;2023-08-07T05:51:46;12.60;99.90
4433;DHT22;2229;48.708;9.706;2023-08-07T05:54:15;12.60;99.90
4433;DHT22;2229;48.708;9.706;2023-08-07T05:56:43;12.70;99.90
4433;DHT22;2229;48.708;9.706;2023-08-07T05:59:10;12.70;99.90
4433;DHT22;2229;48.708;9.706;2023-08-07T06:01:37;12.70;99.90
4433;DHT22;2229;48.708;9.706;2023-08-07T06:04:05;12.70;99.90
4433;DHT22;2229;48.708;9.706;2023-08-07T06:06:32;12.70;99.90
4433;DHT22;2229;48.708;9.706;2023-08-07T06:09:02;12.80;99.90
4433;DHT22;2229;48.708;9.706;2023-08-07T06:11:31;12.90;99.90
4433;DHT22;2229;48.708;9.706;2023-08-07T06:13:58;12.90;99.90
4433;DHT22;2229;48.708;9.706;2023-08-07T06:16:26;13.00;99.90
4433;DHT22;2229;48.708;9.706;2023-08-07T06:18:53;13.10;99.90
4433;DHT22;2229;48.708;9.706;2023-08-07T06:21:21;13.10;99.90
4433;DHT22;2229;48.708;9.706;2023-08-07T06:23:48;13.20;99.90
4433;DHT22;2229;48.708;9.706;2023-08-07T06:26:15;13.20;99.90
4433;DHT22;2229;48.708;9.706;2023-08-07T06:28:44;13.30;99.90
4433;DHT22;2229;48.708;9.706;2023-08-07T06:31:12;13.40;99.90
4433;DHT22;2229;48.708;9.706;2023-08-07T06:33:39;13.40;99.90
4433;DHT22;2229;48.708;9.706;2023-08-07T06:36:07;13.50;99.90
4433;DHT22;2229;48.708;9.706;2023-08-07T06:38:34;13.50;99.90
4433;DHT22;2229;48.708;9.706;2023-08-07T06:41:02;13.60;99.90
4433;DHT22;2229;48.708;9.706;2023-08-07T06:43:29;13.60;99.90
4433;DHT22;2229;48.708;9.706;2023-08-07T06:45:59;13.70;99.90
4433;DHT22;2229;48.708;9.706;2023-08-07T06:48:26;13.70;99.90
4433;DHT22;2229;48.708;9.706;2023-08-07T06:50:54;13.80;99.90
4433;DHT22;2229;48.708;9.706;2023-08-07T06:53:21;13.90;99.90
4433;DHT22;2229;48.708;9.706;2023-08-07T06:55:48;14.00;99.90
4433;DHT22;2229;48.708;9.706;2023-08-07T06:58:15;14.00;99.90
4433;DHT22;2229;48.708;9.706;2023-08-07T07:00:43;14.10;99.90
4433;DHT22;2229;48.708;9.706;2023-08-07T07:03:12;14.10;99.90
4433;DHT22;2229;48.708;9.706;2023-08-07T07:05:39;14.10;99.90
4433;DHT22;2229;48.708;9.706;2023-08-07T07:08:09;14.20;99.90
4433;DHT22;2229;48.708;9.706;2023-08-07T07:10:36;14.20;99.90
4433;DHT22;2229;48.708;9.706;2023-08-07T07:13:03;14.40;99.90
4433;DHT22;2229;48.708;9.706;2023-08-07T07:15:30;14.50;99.90
4433;DHT22;2229;48.708;9.706;2023-08-07T07:17:58;14.60;99.90
4433;DHT22;2229;48.708;9.706;2023-08-07T07:20:26;14.70;99.90
4433;DHT22;2229;48.708;9.706;2023-08-07T07:22:55;14.90;99.90
4433;DHT22;2229;48.708;9.706;2023-08-07T07:25:22;15.00;99.90
4433;DHT22;2229;48.708;9.706;2023-08-07T07:27:50;15.10;99.90
4433;DHT22;2229;48.708;9.706;2023-08-07T07:30:18;15.20;99.90
4433;DHT22;2229;48.708;9.706;2023-08-07T07:32:46;15.20;99.90
4433;DHT22;2229;48.708;9.706;2023-08-07T07:35:13;15.20;99.90
4433;DHT22;2229;48.708;9.706;2023-08-07T07:37:42;15.20;99.90
4433;DHT22;2229;48.708;9.706;2023-08-07T07:40:10;15.30;99.90
4433;DHT22;2229;48.708;9.706;2023-08-07T07:42:37;15.40;99.90
4433;DHT22;2229;48.708;9.706;2023-08-07T07:45:05;15.40;99.90
4433;DHT22;2229;48.708;9.706;2023-08-07T07:47:33;15.20;99.90
4433;DHT22;2229;48.708;9.706;2023-08-07T07:50:07;15.20;99.90
4433;DHT22;2229;48.708;9.706;2023-08-07T07:52:35;15.20;99.90
4433;DHT22;2229;48.708;9.706;2023-08-07T07:55:04;15.20;99.90
4433;DHT22;2229;48.708;9.706;2023-08-07T07:57:32;15.20;99.90
4433;DHT22;2229;48.708;9.706;2023-08-07T07:59:59;15.20;99.90
4433;DHT22;2229;48.708;9.706;2023-08-07T08:02:27;15.30;99.90
4433;DHT22;2229;48.708;9.706;2023-08-07T08:04:56;15.20;99.90
4433;DHT22;2229;48.708;9.706;2023-08-07T08:07:25;15.30;99.90
4433;DHT22;2229;48.708;9.706;2023-08-07T08:09:52;15.30;99.90
4433;DHT22;2229;48.708;9.706;2023-08-07T08:12:22;15.30;99.90
4433;DHT22;2229;48.708;9.706;2023-08-07T08:14:50;15.40;99.90
4433;DHT22;2229;48.708;9.706;2023-08-07T08:17:17;15.30;99.50
4433;DHT22;2229;48.708;9.706;2023-08-07T08:19:44;15.30;99.20
4433;DHT22;2229;48.708;9.706;2023-08-07T08:22:11;15.40;99.60
4433;DHT22;2229;48.708;9.706;2023-08-07T08:24:38;15.40;99.50
4433;DHT22;2229;48.708;9.706;2023-08-07T08:27:06;15.40;99.40
4433;DHT22;2229;48.708;9.706;2023-08-07T08:29:34;15.50;99.20
4433;DHT22;2229;48.708;9.706;2023-08-07T08:32:02;15.60;99.00
4433;DHT22;2229;48.708;9.706;2023-08-07T08:34:30;15.70;99.00
4433;DHT22;2229;48.708;9.706;2023-08-07T08:36:57;15.90;99.10
4433;DHT22;2229;48.708;9.706;2023-08-07T08:39:26;15.90;98.70
4433;DHT22;2229;48.708;9.706;2023-08-07T08:41:53;16.00;98.20
4433;DHT22;2229;48.708;9.706;2023-08-07T08:44:22;16.10;97.70
4433;DHT22;2229;48.708;9.706;2023-08-07T08:46:53;16.10;97.70
4433;DHT22;2229;48.708;9.706;2023-08-07T08:49:26;16.10;97.50
4433;DHT22;2229;48.708;9.706;2023-08-07T08:51:56;16.00;97.00
4433;DHT22;2229;48.708;9.706;2023-08-07T08:54:25;15.90;96.10
4433;DHT22;2229;48.708;9.706;2023-08-07T08:56:52;15.90;96.10
4433;DHT22;2229;48.708;9.706;2023-08-07T08:59:21;15.90;95.60
4433;DHT22;2229;48.708;9.706;2023-08-07T09:01:53;15.80;94.80
4433;DHT22;2229;48.708;9.706;2023-08-07T09:04:20;15.80;94.30
4433;DHT22;2229;48.708;9.706;2023-08-07T09:06:47;15.70;93.00
4433;DHT22;2229;48.708;9.706;2023-08-07T09:09:17;15.70;92.90
4433;DHT22;2229;48.708;9.706;2023-08-07T09:11:46;15.70;92.40
4433;DHT22;2229;48.708;9.706;2023-08-07T09:14:17;15.60;92.40
4433;DHT22;2229;48.708;9.706;2023-08-07T09:16:46;15.50;92.30
4433;DHT22;2229;48.708;9.706;2023-08-07T09:19:16;15.50;92.40
4433;DHT22;2229;48.708;9.706;2023-08-07T09:21:44;15.50;92.40
4433;DHT22;2229;48.708;9.706;2023-08-07T09:24:11;15.60;92.60
4433;DHT22;2229;48.708;9.706;2023-08-07T09:26:39;15.70;92.70
4433;DHT22;2229;48.708;9.706;2023-08-07T09:29:09;15.80;92.80
4433;DHT22;2229;48.708;9.706;2023-08-07T09:31:37;15.90;92.60
4433;DHT22;2229;48.708;9.706;2023-08-07T09:34:04;16.10;92.80
4433;DHT22;2229;48.708;9.706;2023-08-07T09:36:34;16.20;92.50
4433;DHT22;2229;48.708;9.706;2023-08-07T09:39:02;16.40;92.20
4433;DHT22;2229;48.708;9.706;2023-08-07T09:41:30;16.60;91.70
4433;DHT22;2229;48.708;9.706;2023-08-07T09:43:58;16.70;91.30
4433;DHT22;2229;48.708;9.706;2023-08-07T09:46:26;16.90;91.30
4433;DHT22;2229;48.708;9.706;2023-08-07T09:48:57;17.20;91.20
4433;DHT22;2229;48.708;9.706;2023-08-07T09:51:25;17.50;90.90
4433;DHT22;2229;48.708;9.706;2023-08-07T09:53:54;17.70;89.80
4433;DHT22;2229;48.708;9.706;2023-08-07T09:56:22;17.90;89.30
4433;DHT22;2229;48.708;9.706;2023-08-07T09:58:49;18.10;86.60
4433;DHT22;2229;48.708;9.706;2023-08-07T10:01:16;18.30;85.60
4433;DHT22;2229;48.708;9.706;2023-08-07T10:03:45;18.60;84.70
4433;DHT22;2229;48.708;9.706;2023-08-07T10:06:13;18.70;81.70
4433;DHT22;2229;48.708;9.706;2023-08-07T10:08:41;18.70;81.20
4433;DHT22;2229;48.708;9.706;2023-08-07T10:11:14;18.80;81.30
4433;DHT22;2229;48.708;9.706;2023-08-07T10:13:42;18.70;80.20
4433;DHT22;2229;48.708;9.706;2023-08-07T10:16:10;18.50;80.30
4433;DHT22;2229;48.708;9.706;2023-08-07T10:18:39;18.40;79.50
4433;DHT22;2229;48.708;9.706;2023-08-07T10:21:06;18.20;78.40
4433;DHT22;2229;48.708;9.706;2023-08-07T10:23:35;18.10;78.50
4433;DHT22;2229;48.708;9.706;2023-08-07T10:26:05;18.00;79.10
4433;DHT22;2229;48.708;9.706;2023-08-07T10:28:37;17.90;79.10
4433;DHT22;2229;48.708;9.706;2023-08-07T10:31:06;17.80;78.80
4433;DHT22;2229;48.708;9.706;2023-08-07T10:33:34;17.70;79.80
4433;DHT22;2229;48.708;9.706;2023-08-07T10:36:08;17.70;80.30
4433;DHT22;2229;48.708;9.706;2023-08-07T10:38:37;17.70;79.70
4433;DHT22;2229;48.708;9.706;2023-08-07T10:41:07;18.00;81.10
4433;DHT22;2229;48.708;9.706;2023-08-07T10:43:39;18.30;82.30
4433;DHT22;2229;48.708;9.706;2023-08-07T10:46:09;18.60;79.50
4433;DHT22;2229;48.708;9.706;2023-08-07T10:48:44;18.70;79.40
4433;DHT22;2229;48.708;9.706;2023-08-07T10:51:13;18.90;79.10
4433;DHT22;2229;48.708;9.706;2023-08-07T10:53:42;19.00;79.50
4433;DHT22;2229;48.708;9.706;2023-08-07T10:56:15;19.10;78.00
4433;DHT22;2229;48.708;9.706;2023-08-07T10:58:49;19.20;76.90
4433;DHT22;2229;48.708;9.706;2023-08-07T11:01:19;19.20;75.60
4433;DHT22;2229;48.708;9.706;2023-08-07T11:03:52;19.20;76.00
4433;DHT22;2229;48.708;9.706;2023-08-07T11:06:26;19.40;75.30
4433;DHT22;2229;48.708;9.706;2023-08-07T11:08:53;19.50;75.70
4433;DHT22;2229;48.708;9.706;2023-08-07T11:11:21;19.60;74.60
4433;DHT22;2229;48.708;9.706;2023-08-07T11:13:50;19.50;74.20
4433;DHT22;2229;48.708;9.706;2023-08-07T11:16:17;19.40;73.90
4433;DHT22;2229;48.708;9.706;2023-08-07T11:18:47;19.10;73.00
4433;DHT22;2229;48.708;9.706;2023-08-07T11:21:14;18.80;72.50
4433;DHT22;2229;48.708;9.706;2023-08-07T11:23:42;18.50;72.70
4433;DHT22;2229;48.708;9.706;2023-08-07T11:26:10;18.30;73.30
4433;DHT22;2229;48.708;9.706;2023-08-07T11:28:37;18.10;73.40
4433;DHT22;2229;48.708;9.706;2023-08-07T11:31:06;18.00;73.70
4433;DHT22;2229;48.708;9.706;2023-08-07T11:33:35;18.00;74.30
4433;DHT22;2229;48.708;9.706;2023-08-07T11:36:09;18.00;75.60
4433;DHT22;2229;48.708;9.706;2023-08-07T11:38:38;18.00;75.90
4433;DHT22;2229;48.708;9.706;2023-08-07T11:41:06;17.90;75.30
4433;DHT22;2229;48.708;9.706;2023-08-07T11:43:34;17.90;75.90
4433;DHT22;2229;48.708;9.706;2023-08-07T11:46:03;17.70;76.80
4433;DHT22;2229;48.708;9.706;2023-08-07T11:48:36;17.60;77.20
4433;DHT22;2229;48.708;9.706;2023-08-07T11:51:05;17.60;78.40
4433;DHT22;2229;48.708;9.706;2023-08-07T11:53:35;17.70;78.50
4433;DHT22;2229;48.708;9.706;2023-08-07T11:56:05;17.70;77.30
4433;DHT22;2229;48.708;9.706;2023-08-07T11:58:36;17.70;76.00
4433;DHT22;2229;48.708;9.706;2023-08-07T12:01:05;17.60;75.40
4433;DHT22;2229;48.708;9.706;2023-08-07T12:03:36;17.60;75.20
4433;DHT22;2229;48.708;9.706;2023-08-07T12:06:05;17.40;75.30
4433;DHT22;2229;48.708;9.706;2023-08-07T12:08:34;17.30;75.60
4433;DHT22;2229;48.708;9.706;2023-08-07T12:11:02;17.30;75.80
4433;DHT22;2229;48.708;9.706;2023-08-07T12:13:31;17.30;76.60
4433;DHT22;2229;48.708;9.706;2023-08-07T12:16:01;17.30;76.50
4433;DHT22;2229;48.708;9.706;2023-08-07T12:18:30;17.30;77.50
4433;DHT22;2229;48.708;9.706;2023-08-07T12:21:01;17.30;77.20
4433;DHT22;2229;48.708;9.706;2023-08-07T12:23:29;17.40;77.40
4433;DHT22;2229;48.708;9.706;2023-08-07T12:25:57;17.40;77.90
4433;DHT22;2229;48.708;9.706;2023-08-07T12:28:25;17.40;78.60
4433;DHT22;2229;48.708;9.706;2023-08-07T12:30:53;17.40;78.20
4433;DHT22;2229;48.708;9.706;2023-08-07T12:33:21;17.30;78.00
4433;DHT22;2229;48.708;9.706;2023-08-07T12:35:49;17.20;78.90
4433;DHT22;2229;48.708;9.706;2023-08-07T12:38:18;17.20;79.60
4433;DHT22;2229;48.708;9.706;2023-08-07T12:40:46;17.10;79.20
4433;DHT22;2229;48.708;9.706;2023-08-07T12:43:14;16.90;79.20
4433;DHT22;2229;48.708;9.706;2023-08-07T12:45:42;16.80;80.10
4433;DHT22;2229;48.708;9.706;2023-08-07T12:48:10;16.80;80.60
4433;DHT22;2229;48.708;9.706;2023-08-07T12:50:38;16.70;80.80
4433;DHT22;2229;48.708;9.706;2023-08-07T12:53:06;16.70;81.00
4433;DHT22;2229;48.708;9.706;2023-08-07T12:55:35;16.70;81.40
4433;DHT22;2229;48.708;9.706;2023-08-07T12:58:02;16.70;81.80
4433;DHT22;2229;48.708;9.706;2023-08-07T13:00:29;16.80;82.70
4433;DHT22;2229;48.708;9.706;2023-08-07T13:02:57;16.80;82.50
4433;DHT22;2229;48.708;9.706;2023-08-07T13:05:24;16.80;82.90
4433;DHT22;2229;48.708;9.706;2023-08-07T13:07:51;16.80;83.20
4433;DHT22;2229;48.708;9.706;2023-08-07T13:10:20;16.80;83.30
4433;DHT22;2229;48.708;9.706;2023-08-07T13:12:49;16.90;83.70
4433;DHT22;2229;48.708;9.706;2023-08-07T13:15:17;16.90;84.00
4433;DHT22;2229;48.708;9.706;2023-08-07T13:17:44;16.90;83.90
4433;DHT22;2229;48.708;9.706;2023-08-07T13:20:13;16.90;84.30
4433;DHT22;2229;48.708;9.706;2023-08-07T13:22:42;16.90;84.60
4433;DHT22;2229;48.708;9.706;2023-08-07T13:25:12;16.90;84.80
4433;DHT22;2229;48.708;9.706;2023-08-07T13:27:40;17.00;85.40
4433;DHT22;2229;48.708;9.706;2023-08-07T13:30:09;17.00;85.70
4433;DHT22;2229;48.708;9.706;2023-08-07T13:32:37;17.00;85.60
4433;DHT22;2229;48.708;9.706;2023-08-07T13:35:05;17.00;86.00
4433;DHT22;2229;48.708;9.706;2023-08-07T13:37:33;17.00;86.30
4433;DHT22;2229;48.708;9.706;2023-08-07T13:40:00;17.10;86.70
4433;DHT22;2229;48.708;9.706;2023-08-07T13:42:30;17.10;87.00
4433;DHT22;2229;48.708;9.706;2023-08-07T13:44:58;17.10;87.50
4433;DHT22;2229;48.708;9.706;2023-08-07T13:47:27;17.20;87.60
4433;DHT22;2229;48.708;9.706;2023-08-07T13:49:54;17.20;87.60
4433;DHT22;2229;48.708;9.706;2023-08-07T13:52:22;17.20;87.60
4433;DHT22;2229;48.708;9.706;2023-08-07T13:54:50;17.20;88.00
4433;DHT22;2229;48.708;9.706;2023-08-07T13:57:17;17.20;87.90
4433;DHT22;2229;48.708;9.706;2023-08-07T13:59:44;17.20;87.90
4433;DHT22;2229;48.708;9.706;2023-08-07T14:02:11;17.10;87.90
4433;DHT22;2229;48.708;9.706;2023-08-07T14:04:40;17.20;88.90
4433;DHT22;2229;48.708;9.706;2023-08-07T14:07:11;17.10;89.20
4433;DHT22;2229;48.708;9.706;2023-08-07T14:09:38;17.10;89.50
4433;DHT22;2229;48.708;9.706;2023-08-07T14:12:06;17.10;89.60
4433;DHT22;2229;48.708;9.706;2023-08-07T14:14:34;17.00;90.00
4433;DHT22;2229;48.708;9.706;2023-08-07T14:17:01;16.90;90.30
4433;DHT22;2229;48.708;9.706;2023-08-07T14:19:29;16.80;90.50
4433;DHT22;2229;48.708;9.706;2023-08-07T14:21:57;16.70;90.70
4433;DHT22;2229;48.708;9.706;2023-08-07T14:24:25;16.70;91.20
4433;DHT22;2229;48.708;9.706;2023-08-07T14:26:52;16.60;91.60
4433;DHT22;2229;48.708;9.706;2023-08-07T14:29:19;16.50;91.80
4433;DHT22;2229;48.708;9.706;2023-08-07T14:31:47;16.50;92.20
4433;DHT22;2229;48.708;9.706;2023-08-07T14:34:14;16.40;92.70
4433;DHT22;2229;48.708;9.706;2023-08-07T14:36:42;16.50;92.70
4433;DHT22;2229;48.708;9.706;2023-08-07T14:39:12;16.60;93.00
4433;DHT22;2229;48.708;9.706;2023-08-07T14:41:41;16.70;93.30
4433;DHT22;2229;48.708;9.706;2023-08-07T14:44:09;16.80;93.40
4433;DHT22;2229;48.708;9.706;2023-08-07T14:46:37;17.00;93.40
4433;DHT22;2229;48.708;9.706;2023-08-07T14:49:04;17.20;93.60
4433;DHT22;2229;48.708;9.706;2023-08-07T14:51:32;17.40;93.60
4433;DHT22;2229;48.708;9.706;2023-08-07T14:53:59;17.50;93.30
4433;DHT22;2229;48.708;9.706;2023-08-07T14:56:29;17.60;93.20
4433;DHT22;2229;48.708;9.706;2023-08-07T14:58:57;17.60;93.00
4433;DHT22;2229;48.708;9.706;2023-08-07T15:01:24;17.60;92.90
4433;DHT22;2229;48.708;9.706;2023-08-07T15:03:52;17.60;92.70
4433;DHT22;2229;48.708;9.706;2023-08-07T15:06:23;17.60;92.80
4433;DHT22;2229;48.708;9.706;2023-08-07T15:08:50;17.60;92.80
4433;DHT22;2229;48.708;9.706;2023-08-07T15:11:18;17.60;92.70
4433;DHT22;2229;48.708;9.706;2023-08-07T15:13:46;17.60;92.80
4433;DHT22;2229;48.708;9.706;2023-08-07T15:16:14;17.60;92.70
4433;DHT22;2229;48.708;9.706;2023-08-07T15:18:42;17.60;92.40
4433;DHT22;2229;48.708;9.706;2023-08-07T15:21:09;17.60;92.20
4433;DHT22;2229;48.708;9.706;2023-08-07T15:23:38;17.50;92.20
4433;DHT22;2229;48.708;9.706;2023-08-07T15:26:06;17.40;92.10
4433;DHT22;2229;48.708;9.706;2023-08-07T15:28:35;17.30;92.30
4433;DHT22;2229;48.708;9.706;2023-08-07T15:31:04;17.30;92.50
4433;DHT22;2229;48.708;9.706;2023-08-07T15:33:31;17.30;93.00
4433;DHT22;2229;48.708;9.706;2023-08-07T15:36:00;17.20;93.20
4433;DHT22;2229;48.708;9.706;2023-08-07T15:38:29;17.20;93.20
4433;DHT22;2229;48.708;9.706;2023-08-07T15:40:57;17.30;93.40
4433;DHT22;2229;48.708;9.706;2023-08-07T15:43:24;17.40;93.30
4433;DHT22;2229;48.708;9.706;2023-08-07T15:45:51;17.60;93.20
4433;DHT22;2229;48.708;9.706;2023-08-07T15:48:21;17.80;92.80
4433;DHT22;2229;48.708;9.706;2023-08-07T15:50:48;17.90;92.70
4433;DHT22;2229;48.708;9.706;2023-08-07T15:53:15;18.00;92.20
4433;DHT22;2229;48.708;9.706;2023-08-07T15:55:42;17.90;92.00
4433;DHT22;2229;48.708;9.706;2023-08-07T15:58:10;17.90;91.90
4433;DHT22;2229;48.708;9.706;2023-08-07T16:00:37;17.90;91.90
4433;DHT22;2229;48.708;9.706;2023-08-07T16:03:05;17.90;92.00
4433;DHT22;2229;48.708;9.706;2023-08-07T16:05:37;17.90;91.90
4433;DHT22;2229;48.708;9.706;2023-08-07T16:08:05;17.90;91.80